Time;durP1;ratioP1;P1;durP2;ratioP2;P2;SDS_P1;SDS_P2;PMS_P1;PMS_P2;Temp;Humidity;BMP_temperature;BMP_pressure;BME280_temperature;BME280_humidity;BME280_pressure;Samples;Min_cycle;Max_cycle;Signal;HPM_P1;HPM_P2
2023/05/10 00:01:37;;;;;;;;;;;;;;;16.58;100.00;99077.91;5030415;28;19975;-85
2023/05/10 00:04:03;;;;;;;;;;;;;;;16.58;100.00;99077.09;5030500;28;19940;-88
2023/05/10 00:06:28;;;;;;;;;;;;;;;16.63;100.00;99067.53;5030435;28;20305;-89
2023/05/10 00:08:54;;;;;;;;;;;;;;;16.66;100.00;99069.84;5029044;28;19921;-86
2023/05/10 00:11:19;;;;;;;;;;;;;;;16.65;100.00;99073.50;5030007;28;19920;-86
2023/05/10 00:13:45;;;;;;;;;;;;;;;16.71;100.00;99071.91;5030102;28;19968;-86
2023/05/10 00:16:12;;;;;;;;;;;;;;;16.74;100.00;99067.00;5030235;28;20463;-87
2023/05/10 00:18:38;;;;;;;;;;;;;;;16.68;100.00;99067.78;5029876;28;19975;-86
2023/05/10 00:21:04;;;;;;;;;;;;;;;16.64;100.00;99074.50;5030700;28;19925;-90
2023/05/10 00:23:29;;;;;;;;;;;;;;;16.56;100.00;99063.13;5032268;28;19928;-89
2023/05/10 00:25:54;;;;;;;;;;;;;;;16.64;100.00;99066.53;5033838;28;19921;-87
2023/05/10 00:28:20;;;;;;;;;;;;;;;16.60;100.00;99065.28;5025941;28;20412;-87
2023/05/10 00:30:45;;;;;;;;;;;;;;;16.47;100.00;99059.81;5033723;28;19928;-88
2023/05/10 00:33:11;;;;;;;;;;;;;;;16.37;100.00;99060.09;5050055;28;19950;-89
2023/05/10 00:35:37;;;;;;;;;;;;;;;16.38;100.00;99056.44;5034583;28;19921;-90
2023/05/10 00:38:03;;;;;;;;;;;;;;;16.28;100.00;99060.44;5035658;28;19921;-90
2023/05/10 00:40:28;;;;;;;;;;;;;;;16.31;100.00;99055.59;5034320;28;19921;-90
2023/05/10 00:43:00;;;;;;;;;;;;;;;16.28;100.00;99060.44;5020912;28;19921;-89
2023/05/10 00:45:25;;;;;;;;;;;;;;;16.35;100.00;99056.00;5017952;28;20373;-92
2023/05/10 00:47:54;;;;;;;;;;;;;;;16.33;100.00;99045.53;5032641;28;19928;-89
2023/05/10 00:50:20;;;;;;;;;;;;;;;16.45;100.00;99051.16;5032415;28;19994;-89
2023/05/10 00:52:46;;;;;;;;;;;;;;;16.52;100.00;99052.06;5029662;28;19925;-83
2023/05/10 00:55:12;;;;;;;;;;;;;;;16.59;100.00;99049.44;5033630;28;20412;-86
2023/05/10 00:57:37;;;;;;;;;;;;;;;16.57;100.00;99044.31;5030815;28;19925;-86
2023/05/10 01:00:03;;;;;;;;;;;;;;;16.52;100.00;99049.38;5031051;28;20440;-87
2023/05/10 01:02:28;;;;;;;;;;;;;;;16.50;100.00;99043.41;5027174;28;19932;-85
2023/05/10 01:04:55;;;;;;;;;;;;;;;16.46;100.00;99049.34;5031914;28;19928;-88
2023/05/10 01:07:21;;;;;;;;;;;;;;;16.44;100.00;99043.38;5032124;28;20289;-87
2023/05/10 01:09:48;;;;;;;;;;;;;;;16.43;100.00;99047.91;5029237;28;19972;-89
2023/05/10 01:12:13;;;;;;;;;;;;;;;16.33;100.00;99047.38;5033983;28;20345;-89
2023/05/10 01:14:39;;;;;;;;;;;;;;;16.20;100.00;99050.75;5026911;28;20377;-89
2023/05/10 01:17:09;;;;;;;;;;;;;;;16.07;100.00;99041.81;5032346;28;20312;-87
2023/05/10 01:19:36;;;;;;;;;;;;;;;16.00;100.00;99043.59;5030737;28;19921;-89
2023/05/10 01:22:02;;;;;;;;;;;;;;;15.95;100.00;99039.69;5031568;28;19925;-85
2023/05/10 01:24:40;;;;;;;;;;;;;;;15.93;100.00;99041.69;5032624;28;19963;-88
2023/05/10 01:27:14;;;;;;;;;;;;;;;15.81;100.00;99053.84;5031739;28;20381;-85
2023/05/10 01:30:03;;;;;;;;;;;;;;;15.71;100.00;99052.50;5032440;28;19925;-86
2023/05/10 01:32:31;;;;;;;;;;;;;;;15.64;100.00;99047.09;5029985;28;19940;-88
2023/05/10 01:35:00;;;;;;;;;;;;;;;15.67;100.00;99046.72;5032936;28;20266;-88
2023/05/10 01:37:38;;;;;;;;;;;;;;;15.62;100.00;99042.97;5031112;28;19924;-84
2023/05/10 01:40:30;;;;;;;;;;;;;;;15.64;100.00;99044.44;5031973;28;19917;-86
2023/05/10 01:42:59;;;;;;;;;;;;;;;15.63;100.00;99040.13;5031360;28;19917;-86
2023/05/10 01:45:38;;;;;;;;;;;;;;;15.71;100.00;99028.56;5032422;28;19916;-85
2023/05/10 01:48:06;;;;;;;;;;;;;;;15.68;100.00;99037.72;5032382;28;20309;-87
2023/05/10 01:50:32;;;;;;;;;;;;;;;15.72;100.00;99039.03;5032944;28;20580;-90
2023/05/10 01:52:59;;;;;;;;;;;;;;;15.63;100.00;99042.78;5036097;28;19917;-86
2023/05/10 01:55:28;;;;;;;;;;;;;;;15.64;100.00;99041.78;5032873;28;19924;-85
2023/05/10 01:58:03;;;;;;;;;;;;;;;15.60;100.00;99048.50;5033772;28;20362;-89
2023/05/10 02:00:29;;;;;;;;;;;;;;;15.56;100.00;99049.88;5032413;28;19923;-90
2023/05/10 02:02:55;;;;;;;;;;;;;;;15.50;100.00;99042.59;5033275;28;19984;-89
2023/05/10 02:05:21;;;;;;;;;;;;;;;15.50;100.00;99039.94;5031543;28;19921;-92
2023/05/10 02:07:47;;;;;;;;;;;;;;;15.55;100.00;99045.59;5028790;28;19959;-86
2023/05/10 02:10:13;;;;;;;;;;;;;;;15.66;100.00;99044.25;5032704;28;20277;-85
2023/05/10 02:12:43;;;;;;;;;;;;;;;15.77;100.00;99041.94;5031100;28;20406;-87
2023/05/10 02:15:10;;;;;;;;;;;;;;;15.84;100.00;99048.16;5031585;28;19917;-86
2023/05/10 02:17:36;;;;;;;;;;;;;;;15.94;100.00;99037.19;5032691;28;19928;-87
2023/05/10 02:20:05;;;;;;;;;;;;;;;15.96;100.00;99021.88;5032062;28;19953;-85
2023/05/10 02:22:32;;;;;;;;;;;;;;;16.01;100.00;99026.63;5035590;28;19928;-86
2023/05/10 02:24:58;;;;;;;;;;;;;;;16.06;100.00;99025.03;5049450;28;19917;-86
2023/05/10 02:27:24;;;;;;;;;;;;;;;16.11;100.00;99027.94;5046441;28;19905;-89
2023/05/10 02:29:51;;;;;;;;;;;;;;;16.15;100.00;99033.69;5048744;28;20127;-92
2023/05/10 02:32:17;;;;;;;;;;;;;;;16.16;100.00;99028.19;5051672;28;19928;-91
2023/05/10 02:34:45;;;;;;;;;;;;;;;16.14;100.00;99032.06;5048753;28;19901;-91
2023/05/10 02:37:13;;;;;;;;;;;;;;;16.05;100.00;99041.19;5048602;28;19917;-90
2023/05/10 02:39:43;;;;;;;;;;;;;;;16.07;100.00;99041.81;5037094;28;19917;-91
2023/05/10 02:42:09;;;;;;;;;;;;;;;16.05;100.00;99043.84;5022920;28;20047;-89
2023/05/10 02:44:36;;;;;;;;;;;;;;;15.96;100.00;99046.63;5020678;28;19921;-93
2023/05/10 02:47:01;;;;;;;;;;;;;;;15.94;100.00;99056.66;5030031;28;19921;-92
2023/05/10 02:49:28;;;;;;;;;;;;;;;15.83;100.00;99059.81;5035851;28;19920;-92
2023/05/10 02:51:56;;;;;;;;;;;;;;;15.75;100.00;99054.59;5041337;28;19921;-93
2023/05/10 02:54:27;;;;;;;;;;;;;;;15.70;100.00;99057.00;5028046;28;19978;-89
2023/05/10 02:56:56;;;;;;;;;;;;;;;15.68;100.00;99048.38;5014525;28;20329;-91
2023/05/10 02:59:21;;;;;;;;;;;;;;;15.64;100.00;99055.09;5031733;28;20016;-90
2023/05/10 03:01:47;;;;;;;;;;;;;;;15.66;100.00;99054.91;5031014;28;20514;-91
2023/05/10 03:04:13;;;;;;;;;;;;;;;15.69;100.00;99058.00;5031959;28;19916;-94
2023/05/10 03:06:38;;;;;;;;;;;;;;;15.75;100.00;99054.59;5026949;28;19941;-92
2023/05/10 03:09:04;;;;;;;;;;;;;;;15.65;100.00;99056.75;5012803;28;19992;-87
2023/05/10 03:11:49;;;;;;;;;;;;;;;15.68;100.00;99069.66;5030060;28;19925;-90
2023/05/10 03:14:30;;;;;;;;;;;;;;;15.46;100.00;99070.56;5032779;28;20024;-94
2023/05/10 03:16:59;;;;;;;;;;;;;;;15.25;100.00;99067.84;5030705;28;19939;-91
2023/05/10 03:19:25;;;;;;;;;;;;;;;15.09;100.00;99068.84;5031740;28;19917;-92
2023/05/10 03:21:53;;;;;;;;;;;;;;;15.04;100.00;99076.56;5032138;28;20349;-92
2023/05/10 03:24:20;;;;;;;;;;;;;;;14.99;100.00;99069.13;5027073;28;20461;-92
2023/05/10 03:26:48;;;;;;;;;;;;;;;14.92;100.00;99076.19;5028101;28;19917;-93
2023/05/10 03:29:17;;;;;;;;;;;;;;;14.90;100.00;99080.88;5015836;28;19936;-93
2023/05/10 03:31:43;;;;;;;;;;;;;;;14.91;100.00;99085.16;5032795;28;19921;-93
2023/05/10 03:34:08;;;;;;;;;;;;;;;14.93;100.00;99085.81;5032459;28;19928;-92
2023/05/10 03:36:33;;;;;;;;;;;;;;;14.84;100.00;99092.22;5028645;28;20111;-86
2023/05/10 03:38:59;;;;;;;;;;;;;;;14.72;100.00;99093.66;5027544;28;19936;-87
2023/05/10 03:41:25;;;;;;;;;;;;;;;14.69;100.00;99094.84;5029917;28;19944;-86
2023/05/10 03:43:51;;;;;;;;;;;;;;;14.64;100.00;99096.38;5029938;28;19920;-86
2023/05/10 03:46:16;;;;;;;;;;;;;;;14.61;100.00;99102.03;5031466;28;19924;-89
2023/05/10 03:48:42;;;;;;;;;;;;;;;14.58;100.00;99102.41;5030056;28;19924;-89
2023/05/10 03:51:07;;;;;;;;;;;;;;;14.53;100.00;99094.16;5032558;28;20289;-89
2023/05/10 03:53:33;;;;;;;;;;;;;;;14.52;100.00;99092.50;5029049;28;19963;-91
2023/05/10 03:55:58;;;;;;;;;;;;;;;14.53;100.00;99094.16;5026734;28;19917;-90
2023/05/10 03:58:24;;;;;;;;;;;;;;;14.54;100.00;99083.38;5027916;28;19918;-89
2023/05/10 04:00:49;;;;;;;;;;;;;;;14.59;100.00;99072.19;5032271;28;20027;-88
2023/05/10 04:03:14;;;;;;;;;;;;;;;14.59;100.00;99061.56;5030657;28;19928;-88
2023/05/10 04:05:40;;;;;;;;;;;;;;;14.68;100.00;99060.47;5034663;28;19921;-91
2023/05/10 04:08:06;;;;;;;;;;;;;;;14.64;100.00;99093.72;5033316;28;19924;-88
2023/05/10 04:10:31;;;;;;;;;;;;;;;14.65;100.00;99095.38;5019361;28;19978;-89
2023/05/10 04:12:57;;;;;;;;;;;;;;;14.57;100.00;99108.72;5021456;28;19948;-89
2023/05/10 04:15:22;;;;;;;;;;;;;;;14.53;100.00;99126.03;5044521;28;19940;-91
2023/05/10 04:17:47;;;;;;;;;;;;;;;14.52;100.00;99134.97;5048793;28;19920;-90
2023/05/10 04:20:13;;;;;;;;;;;;;;;14.51;100.00;99143.94;5046249;28;19917;-90
2023/05/10 04:22:38;;;;;;;;;;;;;;;14.50;100.00;99139.63;5070625;28;19954;-93
2023/05/10 04:25:04;;;;;;;;;;;;;;;14.48;100.00;99157.59;5059427;28;19909;-90
2023/05/10 04:27:30;;;;;;;;;;;;;;;14.46;100.00;99159.59;5059152;28;19909;-89
2023/05/10 04:29:55;;;;;;;;;;;;;;;14.44;100.00;99164.22;5043391;28;19924;-91
2023/05/10 04:32:20;;;;;;;;;;;;;;;14.37;100.00;99164.16;5047485;28;19956;-87
2023/05/10 04:34:46;;;;;;;;;;;;;;;14.40;100.00;99163.78;5054073;28;19912;-90
2023/05/10 04:37:11;;;;;;;;;;;;;;;14.43;100.00;99165.25;5059039;28;19928;-90
2023/05/10 04:39:37;;;;;;;;;;;;;;;14.41;100.00;99176.03;5051550;28;19928;-88
2023/05/10 04:42:05;;;;;;;;;;;;;;;14.45;100.00;99181.81;5055217;28;19920;-93
2023/05/10 04:44:31;;;;;;;;;;;;;;;14.34;100.00;99181.19;5054051;28;19925;-89
2023/05/10 04:46:57;;;;;;;;;;;;;;;14.30;100.00;99174.59;5056853;28;19909;-92
2023/05/10 04:49:22;;;;;;;;;;;;;;;14.29;100.00;99175.59;5057003;28;19933;-93
2023/05/10 04:51:47;;;;;;;;;;;;;;;14.29;100.00;99177.41;5051450;28;19925;-93
2023/05/10 04:54:16;;;;;;;;;;;;;;;14.26;100.00;99188.38;5054246;28;19909;-93
2023/05/10 04:56:41;;;;;;;;;;;;;;;14.24;100.00;99180.59;5046065;28;20079;-91
2023/05/10 04:59:07;;;;;;;;;;;;;;;14.30;100.00;99179.91;5034723;28;19920;-86
2023/05/10 05:01:32;;;;;;;;;;;;;;;14.28;100.00;99191.69;5034585;28;20356;-84
2023/05/10 05:03:57;;;;;;;;;;;;;;;14.24;100.00;99185.91;5035156;28;19917;-90
2023/05/10 05:06:24;;;;;;;;;;;;;;;14.24;100.00;99193.88;5036428;28;19975;-88
2023/05/10 05:08:50;;;;;;;;;;;;;;;14.27;100.00;99196.16;5034166;28;19970;-91
2023/05/10 05:11:15;;;;;;;;;;;;;;;14.24;100.00;99204.50;5032900;28;19916;-84
2023/05/10 05:13:40;;;;;;;;;;;;;;;14.31;100.00;99208.06;5033897;28;19968;-84
2023/05/10 05:16:06;;;;;;;;;;;;;;;14.27;100.00;99206.78;5034233;28;20017;-84
2023/05/10 05:18:31;;;;;;;;;;;;;;;14.33;100.00;99216.69;5034424;28;19963;-84
2023/05/10 05:20:57;;;;;;;;;;;;;;;14.27;100.00;99211.25;5044808;28;19917;-83
2023/05/10 05:23:24;;;;;;;;;;;;;;;14.27;100.00;99216.56;5039743;28;19971;-82
2023/05/10 05:25:51;;;;;;;;;;;;;;;14.25;100.00;99224.72;5035395;28;19920;-79
2023/05/10 05:28:16;;;;;;;;;;;;;;;14.29;100.00;99239.28;5034123;28;19963;-80
2023/05/10 05:30:42;;;;;;;;;;;;;;;14.24;100.00;99246.97;5032811;28;20301;-77
2023/05/10 05:33:07;;;;;;;;;;;;;;;14.24;100.00;99244.31;5032441;28;20372;-76
2023/05/10 05:35:33;;;;;;;;;;;;;;;14.32;100.00;99238.94;5028301;28;19928;-76
2023/05/10 05:37:58;;;;;;;;;;;;;;;14.42;100.00;99240.59;5028749;28;19928;-76
2023/05/10 05:40:23;;;;;;;;;;;;;;;14.49;100.00;99233.59;5029838;28;19921;-82
2023/05/10 05:42:49;;;;;;;;;;;;;;;14.59;100.00;99244.78;5031927;28;19917;-84
2023/05/10 05:45:15;;;;;;;;;;;;;;;14.61;100.00;99248.09;5033898;28;19928;-88
2023/05/10 05:47:41;;;;;;;;;;;;;;;14.56;100.00;99247.78;5032504;28;19921;-86
2023/05/10 05:50:07;;;;;;;;;;;;;;;14.57;100.00;99254.75;5033859;28;19924;-89
2023/05/10 05:52:32;;;;;;;;;;;;;;;14.57;100.00;99255.59;5033275;28;20022;-87
2023/05/10 05:54:57;;;;;;;;;;;;;;;14.56;100.00;99261.88;5034499;28;19951;-82
2023/05/10 05:57:23;;;;;;;;;;;;;;;14.61;100.00;99256.03;5033259;28;19936;-90
2023/05/10 05:59:48;;;;;;;;;;;;;;;14.70;100.00;99270.94;5033747;28;19984;-87
2023/05/10 06:02:13;;;;;;;;;;;;;;;14.66;100.00;99274.97;5033346;28;20254;-83
2023/05/10 06:04:39;;;;;;;;;;;;;;;14.70;100.00;99276.25;5031701;28;20020;-78
2023/05/10 06:07:04;;;;;;;;;;;;;;;14.73;100.00;99281.19;5022539;28;19929;-78
2023/05/10 06:09:29;;;;;;;;;;;;;;;14.75;100.00;99279.22;5029591;28;19927;-81
2023/05/10 06:11:55;;;;;;;;;;;;;;;14.79;100.00;99287.63;5030708;28;19917;-81
2023/05/10 06:14:20;;;;;;;;;;;;;;;14.70;100.00;99294.84;5033048;28;19927;-80
2023/05/10 06:16:46;;;;;;;;;;;;;;;14.71;100.00;99297.34;5038281;28;19917;-77
2023/05/10 06:19:11;;;;;;;;;;;;;;;14.71;100.00;99309.78;5039001;28;19936;-77
2023/05/10 06:21:36;;;;;;;;;;;;;;;14.72;100.00;99303.47;5041940;28;20434;-78
2023/05/10 06:24:02;;;;;;;;;;;;;;;14.75;100.00;99305.78;5041917;28;19917;-77
2023/05/10 06:26:27;;;;;;;;;;;;;;;14.81;100.00;99314.88;5042374;28;19931;-81
2023/05/10 06:28:53;;;;;;;;;;;;;;;14.85;100.00;99310.84;5040138;28;19942;-78
2023/05/10 06:31:18;;;;;;;;;;;;;;;14.80;100.00;99319.34;5032129;28;19963;-79
2023/05/10 06:33:43;;;;;;;;;;;;;;;14.79;100.00;99312.38;5028381;28;19935;-78
2023/05/10 06:36:09;;;;;;;;;;;;;;;14.74;100.00;99312.06;5031388;28;19917;-79
2023/05/10 06:38:34;;;;;;;;;;;;;;;14.84;100.00;99306.56;5031097;28;20044;-79
2023/05/10 06:41:00;;;;;;;;;;;;;;;14.87;100.00;99315.00;5027531;28;19951;-80
2023/05/10 06:43:26;;;;;;;;;;;;;;;14.86;100.00;99323.97;5030666;28;19917;-79
2023/05/10 06:45:51;;;;;;;;;;;;;;;14.89;100.00;99330.75;5030527;28;19917;-80
2023/05/10 06:48:17;;;;;;;;;;;;;;;14.87;100.00;99330.94;5026995;28;20340;-80
2023/05/10 06:50:42;;;;;;;;;;;;;;;14.97;100.00;99330.69;5030151;28;19925;-79
2023/05/10 06:53:08;;;;;;;;;;;;;;;15.07;100.00;99321.50;5031176;28;20258;-80
2023/05/10 06:55:33;;;;;;;;;;;;;;;15.24;100.00;99324.03;5030957;28;19917;-88
2023/05/10 06:57:58;;;;;;;;;;;;;;;15.36;100.00;99328.75;5031552;28;19917;-83
2023/05/10 07:00:24;;;;;;;;;;;;;;;15.48;100.00;99323.84;5030972;28;19947;-82
2023/05/10 07:02:49;;;;;;;;;;;;;;;15.60;100.00;99316.28;5030899;28;19917;-81
2023/05/10 07:05:15;;;;;;;;;;;;;;;15.74;100.00;99324.28;5030653;28;19936;-79
2023/05/10 07:07:40;;;;;;;;;;;;;;;15.83;100.00;99333.84;5026115;28;19936;-79
2023/05/10 07:10:07;;;;;;;;;;;;;;;15.98;100.00;99331.19;5030001;28;20015;-79
2023/05/10 07:12:32;;;;;;;;;;;;;;;16.11;100.00;99330.56;5029815;28;20365;-78
2023/05/10 07:14:57;;;;;;;;;;;;;;;16.18;100.00;99331.47;5029629;28;20058;-78
2023/05/10 07:17:23;;;;;;;;;;;;;;;16.19;100.00;99335.78;5027793;28;19917;-79
2023/05/10 07:19:48;;;;;;;;;;;;;;;16.12;100.00;99337.53;5029925;28;20035;-79
2023/05/10 07:22:14;;;;;;;;;;;;;;;16.15;100.00;99337.16;5029596;28;19924;-78
2023/05/10 07:24:40;;;;;;;;;;;;;;;16.14;100.00;99346.97;5029727;28;19924;-79
2023/05/10 07:27:06;;;;;;;;;;;;;;;16.15;100.00;99353.13;5029938;28;19917;-79
2023/05/10 07:29:31;;;;;;;;;;;;;;;16.24;100.00;99352.03;5029735;28;19925;-78
2023/05/10 07:31:56;;;;;;;;;;;;;;;16.22;100.00;99354.06;5030330;28;19920;-79
2023/05/10 07:34:22;;;;;;;;;;;;;;;16.28;100.00;99358.63;5033702;28;19917;-78
2023/05/10 07:36:47;;;;;;;;;;;;;;;16.39;100.00;99350.19;5033290;28;20004;-78
2023/05/10 07:39:12;;;;;;;;;;;;;;;16.45;100.00;99354.78;5033866;28;19990;-79
2023/05/10 07:41:38;;;;;;;;;;;;;;;16.50;100.00;99352.38;5028094;28;19917;-78
2023/05/10 07:44:05;;;;;;;;;;;;;;;16.49;100.00;99350.75;5034384;28;20324;-79
2023/05/10 07:46:30;;;;;;;;;;;;;;;16.40;100.00;99349.19;5031774;28;19921;-77
2023/05/10 07:48:56;;;;;;;;;;;;;;;16.46;100.00;99356.44;5033942;28;19917;-77
2023/05/10 07:51:21;;;;;;;;;;;;;;;16.49;100.00;99356.06;5033337;28;20332;-78
2023/05/10 07:53:46;;;;;;;;;;;;;;;16.60;100.00;99354.81;5032753;28;20330;-76
2023/05/10 07:56:26;;;;;;;;;;;;;;;16.56;100.00;99351.63;5031921;28;19925;-76
2023/05/10 07:58:52;;;;;;;;;;;;;;;16.60;100.00;99358.28;5033220;28;20262;-78
2023/05/10 08:01:17;;;;;;;;;;;;;;;16.51;100.00;99353.19;5028792;28;19921;-78
2023/05/10 08:03:43;;;;;;;2.97;2.77;;;;;;;16.39;100.00;99344.84;5032583;28;19931;-78
2023/05/10 08:06:08;;;;;;;3.00;2.80;;;;;;;16.37;100.00;99354.88;5031963;28;20064;-78
2023/05/10 08:08:34;;;;;;;4.50;3.83;;;;;;;16.37;100.00;99339.72;5030056;28;20109;-78
2023/05/10 08:10:59;;;;;;;3.40;3.20;;;;;;;16.38;100.00;99343.19;5032848;28;20037;-78
2023/05/10 08:13:25;;;;;;;;;;;;;;;16.42;100.00;99344.50;5032082;28;20433;-79
2023/05/10 08:15:52;;;;;;;;;;;;;;;16.41;100.00;99342.03;5033010;28;20300;-79
2023/05/10 08:18:18;;;;;;;;;;;;;;;16.32;100.00;99338.63;5031940;28;19913;-78
2023/05/10 08:20:43;;;;;;;3.85;2.75;;;;;;;16.19;100.00;99347.28;5031119;28;20262;-77
2023/05/10 08:23:09;;;;;;;;;;;;;;;16.16;100.00;99354.78;5036285;28;20040;-79
2023/05/10 08:25:34;;;;;;;;;;;;;;;16.27;100.00;99346.34;5032121;28;20026;-79
2023/05/10 08:27:59;;;;;;;;;;;;;;;16.42;100.00;99346.34;5027777;28;19956;-77
2023/05/10 08:30:25;;;;;;;1.90;1.80;;;;;;;16.47;100.00;99347.44;5031747;28;19917;-77
2023/05/10 08:32:50;;;;;;;1.75;1.65;;;;;;;16.50;100.00;99347.03;5031671;28;20045;-77
2023/05/10 08:35:16;;;;;;;2.22;2.08;;;;;;;16.47;100.00;99351.94;5031987;28;20070;-77
2023/05/10 08:37:41;;;;;;;2.10;1.90;;;;;;;16.34;100.00;99347.25;5031470;28;20021;-77
2023/05/10 08:40:11;;;;;;;1.80;1.70;;;;;;;16.34;100.00;99341.94;5032010;28;20034;-78
2023/05/10 08:42:40;;;;;;;2.03;1.73;;;;;;;16.37;100.00;99346.91;5031201;28;20549;-78
2023/05/10 08:45:07;;;;;;;;;;;;;;;16.40;100.00;99341.19;5028298;28;20695;-77
2023/05/10 08:47:32;;;;;;;;;;;;;;;16.49;100.00;99339.25;5031550;28;19917;-78
2023/05/10 08:49:58;;;;;;;;;;;;;;;16.60;100.00;99336.97;5032040;28;19919;-78
2023/05/10 08:52:26;;;;;;;;;;;;;;;16.66;100.00;99341.56;5031502;28;19928;-78
2023/05/10 08:54:52;;;;;;;3.30;2.00;;;;;;;16.69;100.00;99346.50;5032020;28;19989;-78
2023/05/10 08:57:19;;;;;;;1.92;1.83;;;;;;;16.88;100.00;99346.94;5027494;28;20049;-77
2023/05/10 08:59:46;;;;;;;1.88;1.77;;;;;;;16.98;100.00;99355.44;5031120;28;20038;-78
2023/05/10 09:02:12;;;;;;;;;;;;;;;17.01;100.00;99344.41;5031480;28;20042;-75
2023/05/10 09:04:38;;;;;;;;;;;;;;;17.16;100.00;99359.34;5031432;28;20060;-77
2023/05/10 09:07:04;;;;;;;;;;;;;;;17.13;100.00;99357.06;5026827;28;19917;-76
2023/05/10 09:09:29;;;;;;;;;;;;;;;17.10;100.00;99356.59;5030261;28;19916;-77
2023/05/10 09:11:56;;;;;;;;;;;;;;;17.13;100.00;99353.56;5009967;28;19921;-77
2023/05/10 09:14:23;;;;;;;;;;;;;;;17.04;100.00;99354.69;5029546;28;19916;-77
2023/05/10 09:16:48;;;;;;;;;;;;;;;17.05;100.00;99356.34;5026464;28;19917;-76
2023/05/10 09:19:14;;;;;;;;;;;;;;;16.97;100.00;99364.44;5031341;28;19923;-76
2023/05/10 09:21:39;;;;;;;;;;;;;;;16.95;100.00;99364.66;5029489;28;19924;-76
2023/05/10 09:24:05;;;;;;;;;;;;;;;16.96;100.00;99368.16;5031505;28;19948;-75
2023/05/10 09:26:31;;;;;;;;;;;;;;;17.14;100.00;99365.88;5030989;28;19961;-76
2023/05/10 09:28:57;;;;;;;;;;;;;;;17.27;100.00;99357.16;5030883;28;20004;-75
2023/05/10 09:31:24;;;;;;;;;;;;;;;17.26;100.00;99358.22;5030755;28;19987;-76
2023/05/10 09:33:50;;;;;;;;;;;;;;;17.39;100.00;99356.47;5028892;28;20366;-80
2023/05/10 09:36:16;;;;;;;;;;;;;;;17.46;100.00;99354.69;5031519;28;19960;-79
2023/05/10 09:38:49;;;;;;;;;;;;;;;17.51;100.00;99349.59;5031152;28;20391;-80
2023/05/10 09:41:18;;;;;;;;;;;;;;;17.59;100.00;99346.81;5031734;28;19956;-79
2023/05/10 09:43:43;;;;;;;;;;;;;;;17.54;100.00;99351.91;5031322;28;20019;-80
2023/05/10 09:46:11;;;;;;;;;;;;;;;17.58;100.00;99353.16;5031170;28;19959;-79
2023/05/10 09:48:41;;;;;;;;;;;;;;;17.62;100.00;99358.97;5031186;28;19957;-79
2023/05/10 09:51:06;;;;;;;;;;;;;;;17.67;100.00;99355.75;5031538;28;19923;-79
2023/05/10 09:53:32;;;;;;;;;;;;;;;17.74;100.00;99351.25;5032492;28;19917;-79
2023/05/10 09:55:57;;;;;;;;;;;;;;;17.77;100.00;99341.03;5030500;28;19948;-77
2023/05/10 09:58:22;;;;;;;;;;;;;;;17.82;100.00;99351.13;5030126;28;19913;-77
2023/05/10 10:00:51;;;;;;;;;;;;;;;17.86;100.00;99347.88;5030645;28;19916;-79
2023/05/10 10:03:19;;;;;;;;;;;;;;;17.93;100.00;99339.91;5030621;28;19920;-79
2023/05/10 10:05:45;;;;;;;;;;;;;;;17.97;100.00;99346.50;5029901;28;20277;-79
2023/05/10 10:08:12;;;;;;;;;;;;;;;17.98;100.00;99348.16;5031496;28;19964;-79
2023/05/10 10:10:38;;;;;;;;;;;;;;;17.98;100.00;99340.13;5032109;28;20379;-78
2023/05/10 10:13:04;;;;;;;;;;;;;;;18.11;100.00;99342.91;5032957;28;19920;-79
2023/05/10 10:15:30;;;;;;;;;;;;;;;18.13;100.00;99351.56;5032740;28;19924;-79
2023/05/10 10:17:55;;;;;;;;;;;;;;;18.06;100.00;99348.00;5034444;28;19925;-79
2023/05/10 10:20:22;;;;;;;;;;;;;;;18.20;100.00;99351.59;5038619;28;19956;-80
2023/05/10 10:22:48;;;;;;;;;;;;;;;18.29;100.00;99343.22;5034105;28;19947;-79
2023/05/10 10:25:14;;;;;;;;;;;;;;;18.42;100.00;99340.63;5029767;28;19925;-79
2023/05/10 10:27:51;;;;;;;;;;;;;;;18.27;100.00;99352.44;5030878;28;20350;-78
2023/05/10 10:30:16;;;;;;;;;;;;;;;18.30;100.00;99342.19;5030478;28;20134;-78
2023/05/10 10:33:01;;;;;;;;;;;;;;;18.29;100.00;99345.06;5029881;28;20443;-76
2023/05/10 10:35:27;;;;;;;;;;;;;;;18.28;100.00;99344.22;5025445;28;19927;-77
2023/05/10 10:37:53;;;;;;;;;;;;;;;18.33;100.00;99340.97;5030754;28;19974;-79
2023/05/10 10:40:26;;;;;;;;;;;;;;;18.32;100.00;99331.28;5030372;28;20462;-79
2023/05/10 10:42:51;;;;;;;;;;;;;;;18.32;100.00;99329.44;5026582;28;20058;-79
2023/05/10 10:45:17;;;;;;;;;;;;;;;18.23;100.00;99322.63;5030755;28;19932;-79
2023/05/10 10:47:43;;;;;;;;;;;;;;;18.24;100.00;99329.63;5027698;28;19960;-79
2023/05/10 10:50:10;;;;;;;;;;;;;;;18.34;100.00;99327.41;5027582;28;20407;-80
2023/05/10 10:52:39;;;;;;;;;;;;;;;18.37;100.00;99320.88;5024719;28;20641;-79
2023/05/10 10:55:06;;;;;;;;;;;;;;;18.51;100.00;99319.06;5029016;28;19971;-77
2023/05/10 10:57:33;;;;;;;;;;;;;;;18.64;100.00;99316.47;5029547;28;19913;-78
2023/05/10 11:00:17;;;;;;;;;;;;;;;18.86;100.00;99314.47;5029386;28;19978;-77
2023/05/10 11:02:45;;;;;;;;;;;;;;;18.96;100.00;99318.44;5028269;28;19982;-77
2023/05/10 11:05:29;;;;;;;;;;;;;;;18.97;100.00;99320.06;5029591;28;19960;-78
2023/05/10 11:07:56;;;;;;;;;;;;;;;19.00;100.00;99316.16;5024887;28;19917;-78
2023/05/10 11:10:22;;;;;;;;;;;;;;;18.98;100.00;99311.00;5030736;28;20375;-78
2023/05/10 11:13:07;;;;;;;;;;;;;;;18.91;100.00;99304.03;5030086;28;19956;-78
2023/05/10 11:15:33;;;;;;;;;;;;;;;18.86;100.00;99306.47;5026862;28;19963;-78
2023/05/10 11:17:59;;;;;;;;;;;;;;;18.72;100.00;99297.59;5044964;28;20368;-76
2023/05/10 11:20:33;;;;;;;;;;;;;;;18.80;100.00;99300.06;5029431;28;19917;-78
2023/05/10 11:23:10;;;;;;;;;;;;;;;18.92;100.00;99292.28;5029664;28;19960;-76
2023/05/10 11:25:40;;;;;;;;;;;;;;;19.11;100.00;99295.00;5029018;28;20276;-77
2023/05/10 11:28:05;;;;;;;;;;;;;;;19.32;100.00;99298.53;5028459;28;19924;-77
2023/05/10 11:30:31;;;;;;;;;;;;;;;19.21;100.00;99292.75;5029473;28;19921;-78
2023/05/10 11:32:56;;;;;;;;;;;;;;;19.33;100.00;99295.63;5029648;28;19955;-78
2023/05/10 11:35:22;;;;;;;;;;;;;;;19.46;100.00;99292.16;5028262;28;19917;-78
2023/05/10 11:37:47;;;;;;;;;;;;;;;19.29;100.00;99293.56;5029851;28;19921;-77
2023/05/10 11:40:14;;;;;;;;;;;;;;;19.17;100.00;99294.19;5028821;28;19925;-79
2023/05/10 11:42:39;;;;;;;;;;;;;;;19.17;100.00;99291.50;5029179;28;19917;-78
2023/05/10 11:45:05;;;;;;;;;;;;;;;19.27;100.00;99296.44;5024032;28;19936;-78
2023/05/10 11:47:30;;;;;;;;;;;;;;;19.51;100.00;99281.66;5025720;28;19917;-78
2023/05/10 11:49:56;;;;;;;;;;;;;;;19.68;100.00;99288.25;5029264;28;20035;-77
2023/05/10 11:52:23;;;;;;;;;;;;;;;19.76;100.00;99288.03;5028940;28;19917;-78
2023/05/10 11:54:52;;;;;;;;;;;;;;;19.75;100.00;99283.69;5025077;28;20436;-78
2023/05/10 11:57:21;;;;;;;;;;;;;;;19.71;100.00;99277.13;5028993;28;19960;-77
2023/05/10 11:59:46;;;;;;;;;;;;;;;19.51;100.00;99270.97;5029111;28;19924;-78
2023/05/10 12:02:13;;;;;;;;;;;;;;;19.51;100.00;99276.31;5028236;28;20340;-78
2023/05/10 12:04:38;;;;;;;;;;;;;;;19.55;100.00;99277.56;5028445;28;19943;-79
2023/05/10 12:07:04;;;;;;;;;;;;;;;19.48;100.00;99268.72;5027571;28;19942;-78
2023/05/10 12:09:29;;;;;;;;;;;;;;;19.54;100.00;99273.25;5028719;28;19917;-77
2023/05/10 12:11:56;;;;;;;;;;;;;;;19.58;100.00;99274.47;5028980;28;19913;-77
2023/05/10 12:14:21;;;;;;;;;;;;;;;19.69;100.00;99271.16;5028837;28;19921;-78
2023/05/10 12:16:47;;;;;;;;;;;;;;;19.76;100.00;99268.47;5025445;28;19921;-79
2023/05/10 12:19:17;;;;;;;;;;;;;;;19.81;100.00;99266.81;5016148;28;19920;-78
2023/05/10 12:21:43;;;;;;;;;;;;;;;19.87;100.00;99257.94;5021043;28;19932;-78
2023/05/10 12:24:10;;;;;;;;;;;;;;;19.93;100.00;99259.78;5031697;28;19917;-77
2023/05/10 12:26:36;;;;;;;;;;;;;;;19.91;100.00;99245.75;5030864;28;19917;-78
2023/05/10 12:29:20;;;;;;;;;;;;;;;20.13;100.00;99242.84;5032897;28;20108;-78
2023/05/10 12:31:58;;;;;;;;;;;;;;;20.44;100.00;99241.06;5029075;28;19917;-77